createdAt,value
2022-11-15T00:04:54.584Z,8.91
2022-11-15T00:10:15.224Z,8.91
2022-11-15T00:15:36.253Z,8.88
2022-11-15T00:20:57.044Z,8.87
2022-11-15T00:26:17.566Z,8.86
2022-11-15T00:31:37.919Z,8.79
2022-11-15T00:36:58.243Z,8.66
2022-11-15T00:42:18.457Z,8.62
2022-11-15T00:47:38.848Z,8.69
2022-11-15T00:52:59.265Z,8.85
2022-11-15T00:58:19.476Z,8.96
2022-11-15T01:03:40.412Z,9.04
2022-11-15T01:09:00.754Z,8.82
2022-11-15T01:14:25.231Z,8.84
2022-11-15T01:19:46.005Z,8.90
2022-11-15T01:25:06.225Z,8.90
2022-11-15T01:30:26.592Z,8.91
2022-11-15T01:35:46.962Z,8.90
2022-11-15T01:41:07.837Z,8.86
2022-11-15T01:46:38.875Z,8.89
2022-11-15T01:51:59.917Z,8.93
2022-11-15T01:57:20.636Z,9.02
2022-11-15T02:02:41.449Z,9.13
2022-11-15T02:08:02.374Z,9.26
2022-11-15T02:13:22.839Z,9.33
2022-11-15T02:18:49.624Z,9.34
2022-11-15T02:24:37.279Z,9.30
2022-11-15T02:30:22.299Z,9.33
2022-11-15T02:35:48.785Z,9.22
2022-11-15T02:41:18.181Z,9.09
2022-11-15T02:47:09.122Z,8.93
2022-11-15T02:52:29.132Z,8.86
2022-11-15T02:58:16.821Z,8.83
2022-11-15T03:04:03.759Z,8.76
2022-11-15T03:09:51.577Z,8.72
2022-11-15T03:15:39.317Z,8.79
2022-11-15T03:21:04.334Z,8.71
2022-11-15T03:26:26.530Z,8.74
2022-11-15T03:31:51.904Z,8.76
2022-11-15T03:37:15.213Z,8.73
2022-11-15T03:42:52.863Z,8.65
2022-11-15T03:48:23.940Z,8.61
2022-11-15T03:53:44.302Z,8.62
2022-11-15T03:59:04.542Z,8.63
2022-11-15T04:04:24.881Z,8.54
2022-11-15T04:10:03.505Z,8.45
2022-11-15T04:15:25.835Z,8.43
2022-11-15T04:21:04.434Z,8.39
2022-11-15T04:26:25.002Z,8.36
2022-11-15T04:31:45.389Z,8.31
2022-11-15T04:37:14.644Z,8.30
2022-11-15T04:42:35.164Z,8.31
2022-11-15T04:47:55.571Z,8.30
2022-11-15T04:53:15.828Z,8.23
2022-11-15T04:58:36.391Z,8.22
2022-11-15T05:04:14.991Z,8.23
2022-11-15T05:09:35.193Z,8.21
2022-11-15T05:14:55.521Z,8.18
2022-11-15T05:20:15.933Z,8.18
2022-11-15T05:25:37.045Z,8.14
2022-11-15T05:31:09.244Z,8.27
2022-11-15T05:36:38.900Z,8.21
2022-11-15T05:42:07.257Z,8.16
2022-11-15T05:47:30.504Z,8.15
2022-11-15T05:52:51.857Z,8.19
2022-11-15T05:58:12.356Z,8.19
2022-11-15T06:03:33.228Z,8.20
2022-11-15T06:08:54.004Z,8.27
2022-11-15T06:14:14.031Z,8.32
2022-11-15T06:19:34.432Z,8.20
2022-11-15T06:24:54.700Z,8.22
2022-11-15T06:30:15.393Z,8.23
2022-11-15T06:35:36.712Z,8.24
2022-11-15T06:41:02.659Z,8.22
2022-11-15T06:46:23.178Z,8.28
2022-11-15T06:51:43.495Z,8.42
2022-11-15T06:57:05.593Z,8.51
2022-11-15T07:02:25.663Z,8.58
2022-11-15T07:07:53.283Z,8.74
2022-11-15T07:13:13.509Z,8.99
2022-11-15T07:18:38.636Z,9.19
2022-11-15T07:23:58.600Z,9.36
2022-11-15T07:29:19.030Z,9.56
2022-11-15T07:34:39.289Z,9.73
2022-11-15T07:39:59.733Z,9.93
2022-11-15T07:45:26.799Z,10.11
2022-11-15T07:50:47.132Z,10.32
2022-11-15T07:56:07.900Z,10.57
2022-11-15T08:01:28.341Z,10.79
2022-11-15T08:06:48.774Z,11.06
2022-11-15T08:12:09.234Z,11.28
2022-11-15T08:17:33.105Z,11.53
2022-11-15T08:22:53.754Z,11.72
2022-11-15T08:28:14.429Z,11.89
2022-11-15T08:33:35.156Z,12.05
2022-11-15T08:38:56.117Z,12.21
2022-11-15T08:44:16.547Z,12.38
2022-11-15T08:49:36.791Z,12.60
2022-11-15T08:54:57.112Z,12.89
2022-11-15T09:00:18.017Z,13.12
2022-11-15T09:05:38.986Z,13.29
2022-11-15T09:10:59.269Z,13.54
2022-11-15T09:16:19.711Z,13.60
2022-11-15T09:21:40.033Z,13.62
2022-11-15T09:27:00.466Z,13.57
2022-11-15T09:32:20.749Z,13.72
2022-11-15T09:37:41.356Z,13.91
2022-11-15T09:43:35.520Z,14.04
2022-11-15T09:48:58.253Z,14.15
2022-11-15T09:54:46.092Z,14.21
2022-11-15T10:05:26.486Z,14.24
2022-11-15T10:10:37.365Z,14.28
2022-11-15T10:15:39.299Z,14.29
2022-11-15T10:20:47.841Z,14.23
2022-11-15T10:25:54.233Z,14.25
2022-11-15T10:30:58.489Z,14.26
2022-11-15T10:36:16.258Z,14.27
2022-11-15T10:41:32.883Z,14.22
2022-11-15T10:46:48.606Z,14.18
2022-11-15T10:51:55.168Z,14.13
2022-11-15T10:57:00.715Z,14.11
2022-11-15T11:02:02.642Z,14.24
2022-11-15T11:07:22.536Z,14.25
2022-11-15T11:12:33.472Z,14.34
2022-11-15T11:17:59.559Z,14.45
2022-11-15T11:23:16.502Z,14.46
2022-11-15T11:28:40.435Z,14.42
2022-11-15T11:34:19.283Z,14.50
2022-11-15T11:39:45.395Z,14.64
2022-11-15T11:45:14.970Z,14.68
2022-11-15T11:50:20.922Z,14.73
2022-11-15T11:55:54.059Z,14.72
2022-11-15T12:01:01.206Z,14.87
2022-11-15T12:06:28.583Z,14.96
2022-11-15T12:11:38.227Z,15.16
2022-11-15T12:16:42.792Z,15.39
2022-11-15T12:22:11.620Z,15.66
2022-11-15T12:27:47.494Z,15.82
2022-11-15T12:33:01.045Z,16.60
2022-11-15T12:38:03.270Z,18.68
2022-11-15T12:43:14.536Z,20.83
2022-11-15T12:48:19.784Z,22.46
2022-11-15T12:53:25.011Z,22.87
2022-11-15T12:58:50.988Z,23.25
2022-11-15T13:04:22.925Z,24.29
2022-11-15T13:09:36.806Z,25.37
2022-11-15T13:14:40.519Z,26.24
2022-11-15T13:19:42.474Z,26.86
2022-11-15T13:24:44.559Z,27.38
2022-11-15T13:29:46.439Z,27.69
2022-11-15T13:34:53.684Z,27.76
2022-11-15T13:39:55.555Z,27.80
2022-11-15T13:45:02.970Z,27.64
2022-11-15T13:50:12.068Z,27.33
2022-11-15T13:55:19.933Z,26.74
2022-11-15T14:00:34.551Z,24.86
2022-11-15T14:05:36.683Z,22.59
2022-11-15T14:10:39.469Z,20.50
2022-11-15T14:15:41.249Z,18.88
2022-11-15T14:20:43.959Z,17.71
2022-11-15T14:25:58.079Z,16.85
2022-11-15T14:31:01.287Z,16.22
2022-11-15T14:36:05.113Z,15.70
2022-11-15T14:41:11.545Z,15.26
2022-11-15T14:46:13.376Z,14.90
2022-11-15T14:51:17.956Z,14.55
2022-11-15T14:56:19.823Z,14.27
2022-11-15T15:01:25.453Z,14.05
2022-11-15T15:06:27.999Z,13.85
2022-11-15T15:11:32.161Z,13.60
2022-11-15T15:16:34.030Z,13.44
2022-11-15T15:21:37.653Z,13.30
2022-11-15T15:26:40.187Z,13.14
2022-11-15T15:31:42.210Z,12.94
2022-11-15T15:36:44.067Z,12.77
2022-11-15T15:41:46.241Z,12.57
2022-11-15T15:46:48.126Z,12.38
2022-11-15T15:51:50.079Z,12.21
2022-11-15T15:56:56.007Z,12.06
2022-11-15T16:01:58.434Z,11.87
2022-11-15T16:07:01.957Z,11.71
2022-11-15T16:12:03.932Z,11.54
2022-11-15T16:17:06.305Z,11.34
2022-11-15T16:22:08.133Z,11.19
2022-11-15T16:27:18.085Z,11.03
2022-11-15T16:32:20.005Z,10.91
2022-11-15T16:37:24.294Z,10.81
2022-11-15T16:42:26.256Z,10.72
2022-11-15T16:47:28.211Z,10.59
2022-11-15T16:52:30.007Z,10.46
2022-11-15T16:57:31.821Z,10.37
2022-11-15T17:02:34.037Z,10.26
2022-11-15T17:07:36.416Z,10.19
2022-11-15T17:12:38.386Z,10.07
2022-11-15T17:17:41.413Z,9.98
2022-11-15T17:22:43.248Z,9.87
2022-11-15T17:27:45.156Z,9.76
2022-11-15T17:32:49.900Z,9.64
2022-11-15T17:37:52.848Z,9.55
2022-11-15T17:42:55.544Z,9.45
2022-11-15T17:47:57.388Z,9.43
2022-11-15T17:53:00.127Z,9.38
2022-11-15T17:58:01.934Z,9.29
2022-11-15T18:03:05.034Z,9.18
2022-11-15T18:08:10.203Z,9.06
2022-11-15T18:13:14.649Z,8.97
2022-11-15T18:18:16.530Z,8.90
2022-11-15T18:23:18.459Z,8.83
2022-11-15T18:28:20.520Z,8.73
2022-11-15T18:33:22.408Z,8.68
2022-11-15T18:38:24.293Z,8.56
2022-11-15T18:43:26.389Z,8.45
2022-11-15T18:48:31.197Z,8.38
2022-11-15T18:53:34.449Z,8.40
2022-11-15T18:58:40.117Z,8.37
2022-11-15T19:03:44.426Z,8.28
2022-11-15T19:08:48.854Z,8.18
2022-11-15T19:13:59.689Z,8.05
2022-11-15T19:19:04.543Z,8.04
2022-11-15T19:24:06.880Z,7.92
2022-11-15T19:29:13.872Z,7.83
2022-11-15T19:34:16.681Z,7.76
2022-11-15T19:39:18.701Z,7.75
2022-11-15T19:44:22.114Z,7.75
2022-11-15T19:49:23.989Z,7.74
2022-11-15T19:54:25.790Z,7.79
2022-11-15T19:59:27.680Z,7.70
2022-11-15T20:04:29.552Z,7.64
2022-11-15T20:09:31.377Z,7.63
2022-11-15T20:14:33.247Z,7.61
2022-11-15T20:19:35.162Z,7.59
2022-11-15T20:24:37.041Z,7.59
2022-11-15T20:29:43.651Z,7.60
2022-11-15T20:34:50.176Z,7.62
2022-11-15T20:39:55.669Z,7.58
2022-11-15T20:44:57.468Z,7.52
2022-11-15T20:50:14.954Z,7.47
2022-11-15T20:55:21.296Z,7.38
2022-11-15T21:00:25.827Z,7.29
2022-11-15T21:05:28.709Z,7.15
2022-11-15T21:10:51.357Z,7.12
2022-11-15T21:15:57.782Z,7.10
2022-11-15T21:21:04.497Z,7.10
2022-11-15T21:26:06.375Z,7.06
2022-11-15T21:31:09.198Z,7.02
2022-11-15T21:36:10.981Z,7.00
2022-11-15T21:41:12.755Z,6.95
2022-11-15T21:46:14.553Z,6.90
2022-11-15T21:51:16.371Z,6.87
2022-11-15T21:56:18.379Z,6.87
2022-11-15T22:01:56.377Z,6.82
2022-11-15T22:06:58.815Z,6.76
2022-11-15T22:12:00.767Z,6.74
2022-11-15T22:17:02.636Z,6.71
2022-11-15T22:22:04.825Z,6.69
2022-11-15T22:27:06.883Z,6.64
2022-11-15T22:32:08.760Z,6.64
2022-11-15T22:37:20.571Z,6.68
2022-11-15T22:42:24.114Z,6.69
2022-11-15T22:47:26.440Z,6.70
2022-11-15T22:52:28.325Z,6.71
2022-11-15T22:57:30.266Z,6.69
2022-11-15T23:02:32.140Z,6.67
2022-11-15T23:07:34.621Z,6.60
2022-11-15T23:12:55.272Z,6.58
2022-11-15T23:17:57.142Z,6.55
2022-11-15T23:22:59.389Z,6.53
2022-11-15T23:28:05.300Z,6.58
2022-11-15T23:33:25.872Z,6.62
2022-11-15T23:38:27.803Z,6.70
2022-11-15T23:43:30.022Z,6.75
2022-11-15T23:48:32.307Z,6.77
2022-11-15T23:53:34.542Z,6.82
2022-11-15T23:58:36.715Z,6.78
